createdAt,value
2018-03-17T00:00:22.366Z,61.55
2018-03-17T00:01:22.621Z,61.27
2018-03-17T00:02:22.583Z,61.65
2018-03-17T00:03:22.558Z,61.55
2018-03-17T00:04:22.541Z,60.8
2018-03-17T00:05:22.264Z,61.84
2018-03-17T00:06:22.503Z,61.84
2018-03-17T00:07:22.480Z,61.74
2018-03-17T00:08:22.202Z,61.55
2018-03-17T00:09:22.449Z,61.93
2018-03-17T00:10:22.419Z,61.52
2018-03-17T00:11:22.404Z,60.8
2018-03-17T00:12:22.381Z,59.48
2018-03-17T00:13:22.366Z,59.57
2018-03-17T00:14:22.087Z,59.57
2018-03-17T00:15:22.064Z,59.29
2018-03-17T00:16:22.311Z,59.38
2018-03-17T00:17:22.282Z,59.19
2018-03-17T00:18:22.261Z,59.1
2018-03-17T00:19:22.246Z,59.67
2018-03-17T00:20:22.281Z,59.67
2018-03-17T00:21:22.206Z,60.05
2018-03-17T00:22:22.192Z,59.86
2018-03-17T00:23:22.162Z,60.14
2018-03-17T00:24:22.146Z,59.86
2018-03-17T00:25:22.122Z,59.86
2018-03-17T00:26:22.106Z,60.24
2018-03-17T00:27:22.088Z,60.24
2018-03-17T00:28:21.808Z,61.08
2018-03-17T00:29:22.053Z,61.08
2018-03-17T00:30:21.765Z,61.65
2018-03-17T00:31:22.004Z,61.55
2018-03-17T00:32:21.988Z,61.46
2018-03-17T00:33:21.709Z,61.55
2018-03-17T00:34:21.946Z,61.27
2018-03-17T00:35:21.667Z,61.65
2018-03-17T00:36:21.648Z,61.52
2018-03-17T00:37:21.630Z,60.68
2018-03-17T00:38:21.870Z,60.49
2018-03-17T00:39:21.852Z,60.42
2018-03-17T00:40:21.828Z,59.95
2018-03-17T00:41:21.807Z,59.83
2018-03-17T00:42:21.786Z,60.02
2018-03-17T00:43:21.768Z,59.17
2018-03-17T00:44:21.748Z,59.17
2018-03-17T00:45:21.727Z,59.26
2018-03-17T00:46:21.703Z,59.83
2018-03-17T00:47:21.685Z,59.35
2018-03-17T00:48:21.669Z,59.26
2018-03-17T00:49:21.644Z,59.26
2018-03-17T00:50:21.370Z,59.38
2018-03-17T00:51:21.605Z,59.17
2018-03-17T00:52:21.330Z,59.67
2018-03-17T00:53:21.569Z,59.17
2018-03-17T00:54:21.289Z,59.67
2018-03-17T00:55:21.269Z,59.45
2018-03-17T00:56:21.508Z,59.38
2018-03-17T00:57:21.492Z,60.02
2018-03-17T00:58:21.209Z,60.02
2018-03-17T00:59:21.189Z,60.3
2018-03-17T01:00:21.436Z,61.15
2018-03-17T01:01:21.413Z,60.58
2018-03-17T01:02:21.394Z,60.58
2018-03-17T01:03:21.113Z,60.77
2018-03-17T01:04:21.346Z,60.58
2018-03-17T01:05:21.335Z,60.11
2018-03-17T01:06:21.318Z,59.92
2018-03-17T01:07:21.302Z,59.45
2018-03-17T01:08:21.276Z,59.64
2018-03-17T01:09:20.994Z,60.11
2018-03-17T01:10:21.230Z,61.43
2018-03-17T01:11:21.212Z,61.8
2018-03-17T01:12:20.945Z,61.9
2018-03-17T01:13:21.176Z,61.61
2018-03-17T01:14:20.893Z,61.61
2018-03-17T01:15:21.133Z,61.9
2018-03-17T01:16:21.116Z,61.99
2018-03-17T01:17:20.835Z,61.9
2018-03-17T01:18:21.129Z,61.8
2018-03-17T01:19:21.054Z,61.71
2018-03-17T01:20:21.044Z,61.05
2018-03-17T01:21:21.012Z,60.77
2018-03-17T01:22:20.731Z,60.02
2018-03-17T01:23:20.714Z,60.11
2018-03-17T01:24:20.953Z,60.58
2018-03-17T01:25:20.930Z,60.11
2018-03-17T01:26:20.652Z,59.73
2018-03-17T01:27:20.888Z,59.83
2018-03-17T01:28:20.868Z,60.11
2018-03-17T01:29:20.857Z,59.83
2018-03-17T01:30:20.832Z,60.21
2018-03-17T01:31:20.812Z,60.21
2018-03-17T01:32:20.536Z,60.77
2018-03-17T01:33:20.767Z,60.68
2018-03-17T01:34:20.496Z,60.49
2018-03-17T01:35:20.731Z,60.68
2018-03-17T01:36:20.708Z,60.02
2018-03-17T01:37:20.696Z,59.83
2018-03-17T01:38:20.668Z,60.02
2018-03-17T01:39:20.393Z,59.54
2018-03-17T01:40:20.654Z,59.54
2018-03-17T01:41:20.348Z,59.35
2018-03-17T01:42:20.591Z,58.98
2018-03-17T01:43:20.567Z,58.6
2018-03-17T01:44:20.552Z,58.5
2018-03-17T01:45:20.274Z,59.26
2018-03-17T01:46:20.252Z,58.79
2018-03-17T01:47:20.492Z,59.07
2018-03-17T01:48:20.469Z,58.98
2018-03-17T01:49:20.446Z,59.17
2018-03-17T01:50:20.172Z,59.45
2018-03-17T01:51:20.408Z,59.83
2018-03-17T01:52:20.390Z,60.3
2018-03-17T01:53:20.368Z,61.15
2018-03-17T01:54:20.350Z,60.86
2018-03-17T01:55:20.331Z,60.77
2018-03-17T01:56:20.311Z,61.24
2018-03-17T01:57:20.288Z,62.66
2018-03-17T01:58:20.269Z,62.47
2018-03-17T01:59:20.248Z,62.66
2018-03-17T02:00:20.230Z,62.75
2018-03-17T02:01:20.209Z,63.03
2018-03-17T02:02:20.192Z,63.32
2018-03-17T02:03:20.171Z,63.22
2018-03-17T02:04:20.152Z,63.32
2018-03-17T02:05:20.135Z,63.7
2018-03-17T02:06:20.113Z,63.32
2018-03-17T02:07:20.085Z,63.13
2018-03-17T02:08:20.069Z,62.94
2018-03-17T02:09:19.791Z,63.51
2018-03-17T02:10:20.031Z,63.03
2018-03-17T02:11:19.748Z,63.32
2018-03-17T02:12:19.991Z,63.41
2018-03-17T02:13:19.965Z,63.51
2018-03-17T02:14:19.950Z,63.41
2018-03-17T02:15:19.926Z,64.54
2018-03-17T02:16:19.908Z,64.45
2018-03-17T02:17:19.886Z,64.36
2018-03-17T02:18:19.865Z,64.45
2018-03-17T02:19:19.849Z,64.26
2018-03-17T02:20:19.826Z,64.17
2018-03-17T02:21:19.964Z,64.45
2018-03-17T02:22:19.913Z,63.98
2018-03-17T02:23:19.770Z,63.51
2018-03-17T02:24:19.487Z,63.41
2018-03-17T02:25:19.728Z,63.03
2018-03-17T02:26:19.710Z,63.13
2018-03-17T02:27:19.695Z,64.54
2018-03-17T02:28:19.667Z,64.92
2018-03-17T02:29:19.645Z,64.26
2018-03-17T02:30:19.630Z,63.7
2018-03-17T02:31:19.627Z,63.41
2018-03-17T02:32:19.327Z,63.41
2018-03-17T02:33:19.305Z,62.94
2018-03-17T02:34:19.546Z,62.56
2018-03-17T02:35:19.525Z,62.84
2018-03-17T02:36:19.507Z,62.09
2018-03-17T02:37:19.481Z,62.37
2018-03-17T02:38:19.473Z,62.28
2018-03-17T02:39:19.461Z,62.56
2018-03-17T02:40:19.426Z,62.37
2018-03-17T02:41:19.408Z,62.75
2018-03-17T02:42:19.126Z,63.6
2018-03-17T02:43:19.439Z,63.6
2018-03-17T02:44:19.345Z,63.79
2018-03-17T02:45:19.329Z,63.79
2018-03-17T02:46:19.314Z,63.89
2018-03-17T02:47:19.282Z,63.6
2018-03-17T02:48:19.277Z,63.89
2018-03-17T02:49:19.247Z,63.89
2018-03-17T02:50:19.182Z,63.79
2018-03-17T02:51:19.201Z,63.79
2018-03-17T02:52:18.926Z,63.6
2018-03-17T02:53:19.176Z,63.7
2018-03-17T02:54:19.143Z,63.79
2018-03-17T02:55:18.861Z,63.32
2018-03-17T02:56:19.099Z,63.13
2018-03-17T02:57:18.820Z,62.37
2018-03-17T02:58:18.800Z,62.75
2018-03-17T02:59:19.038Z,62.28
2018-03-17T03:00:18.763Z,61.8
2018-03-17T03:01:19.009Z,61.33
2018-03-17T03:02:18.978Z,61.43
2018-03-17T03:03:18.700Z,61.15
2018-03-17T03:04:18.946Z,61.43
2018-03-17T03:05:18.664Z,60.49
2018-03-17T03:06:18.897Z,59.92
2018-03-17T03:07:18.875Z,59.07
2018-03-17T03:08:18.860Z,59.17
2018-03-17T03:09:18.850Z,58.88
2018-03-17T03:10:18.557Z,59.17
2018-03-17T03:11:18.794Z,58.79
2018-03-17T03:12:18.517Z,59.17
2018-03-17T03:13:18.753Z,58.79
2018-03-17T03:14:18.475Z,59.07
2018-03-17T03:15:18.713Z,59.35
2018-03-17T03:16:18.771Z,59.35
2018-03-17T03:17:18.411Z,59.26
2018-03-17T03:18:18.649Z,60.21
2018-03-17T03:19:18.641Z,60.21
2018-03-17T03:20:18.351Z,60.68
2018-03-17T03:21:18.592Z,61.52
2018-03-17T03:22:18.311Z,61.43
2018-03-17T03:23:18.661Z,61.52
2018-03-17T03:24:18.528Z,60.96
2018-03-17T03:25:18.582Z,60.86
2018-03-17T03:26:18.485Z,60.39
2018-03-17T03:27:18.470Z,60.02
2018-03-17T03:28:18.459Z,60.11
2018-03-17T03:29:18.428Z,59.26
2018-03-17T03:30:18.413Z,59.26
2018-03-17T03:31:18.396Z,59.35
2018-03-17T03:32:18.108Z,59.64
2018-03-17T03:33:18.343Z,60.11
2018-03-17T03:34:18.322Z,60.02
2018-03-17T03:35:18.307Z,59.83
2018-03-17T03:36:18.286Z,61.05
2018-03-17T03:37:18.266Z,61.52
2018-03-17T03:38:17.986Z,61.61
2018-03-17T03:39:18.230Z,61.15
2018-03-17T03:40:18.202Z,61.05
2018-03-17T03:41:18.183Z,59.92
2018-03-17T03:42:17.902Z,59.73
2018-03-17T03:43:18.144Z,59.83
2018-03-17T03:44:18.121Z,59.07
2018-03-17T03:45:18.101Z,60.3
2018-03-17T03:46:17.821Z,59.64
2018-03-17T03:47:17.801Z,59.92
2018-03-17T03:48:17.799Z,60.11
2018-03-17T03:49:18.019Z,60.49
2018-03-17T03:50:17.742Z,59.83
2018-03-17T03:51:17.721Z,60.02
2018-03-17T03:52:17.959Z,59.83
2018-03-17T03:53:17.678Z,59.35
2018-03-17T03:54:17.656Z,59.26
2018-03-17T03:55:17.895Z,60.02
2018-03-17T03:56:17.874Z,60.02
2018-03-17T03:57:17.854Z,59.8
2018-03-17T03:58:17.841Z,59.83
2018-03-17T03:59:17.819Z,59.54
2018-03-17T04:00:17.796Z,59.17
2018-03-17T04:01:17.777Z,58.88
2018-03-17T04:02:17.756Z,59.35
2018-03-17T04:03:17.733Z,59.17
2018-03-17T04:04:17.450Z,59.64
2018-03-17T04:05:17.695Z,59.26
2018-03-17T04:06:17.667Z,59.35
2018-03-17T04:07:17.393Z,60.21
2018-03-17T04:08:17.629Z,60.39
2018-03-17T04:09:17.606Z,60.02
2018-03-17T04:10:17.586Z,60.58
2018-03-17T04:11:17.567Z,60.3
2018-03-17T04:12:17.553Z,61.05
2018-03-17T04:13:17.522Z,61.52
2018-03-17T04:14:17.504Z,61.49
2018-03-17T04:15:17.489Z,61.4
2018-03-17T04:16:17.461Z,61.87
2018-03-17T04:17:17.439Z,61.3
2018-03-17T04:18:17.419Z,61.02
2018-03-17T04:19:17.403Z,60.83
2018-03-17T04:20:17.124Z,60.64
2018-03-17T04:21:17.101Z,60.55
2018-03-17T04:22:17.337Z,61.49
2018-03-17T04:23:17.318Z,61.49
2018-03-17T04:24:17.038Z,61.02
2018-03-17T04:25:17.276Z,61.11
2018-03-17T04:26:16.998Z,61.49
2018-03-17T04:27:17.245Z,61.58
2018-03-17T04:28:17.215Z,61.49
2018-03-17T04:29:17.196Z,61.4
2018-03-17T04:30:17.178Z,61.96
2018-03-17T04:31:17.209Z,61.21
2018-03-17T04:32:17.138Z,61.87
2018-03-17T04:33:17.116Z,61.68
2018-03-17T04:34:17.089Z,61.58
2018-03-17T04:35:17.079Z,61.21
2018-03-17T04:36:17.053Z,61.4
2018-03-17T04:37:17.027Z,61.4
2018-03-17T04:38:17.010Z,61.4
2018-03-17T04:39:16.984Z,61.21
2018-03-17T04:40:16.970Z,61.68
2018-03-17T04:41:16.946Z,61.58
2018-03-17T04:42:16.926Z,61.11
2018-03-17T04:43:16.903Z,61.77
2018-03-17T04:44:16.883Z,61.77
2018-03-17T04:45:16.605Z,61.58
2018-03-17T04:46:16.848Z,61.49
2018-03-17T04:47:16.821Z,61.4
2018-03-17T04:48:16.802Z,61.58
2018-03-17T04:49:16.793Z,62.53
2018-03-17T04:50:16.757Z,62.91
2018-03-17T04:51:16.756Z,63.66
2018-03-17T04:52:16.719Z,64.42
2018-03-17T04:53:16.702Z,64.42
2018-03-17T04:54:16.676Z,65.17
2018-03-17T04:55:16.660Z,64.98
2018-03-17T04:56:16.639Z,64.98
2018-03-17T04:57:16.616Z,64.89
2018-03-17T04:58:16.595Z,64.79
2018-03-17T04:59:16.323Z,64.7
2018-03-17T05:00:16.298Z,64.89
2018-03-17T05:01:16.622Z,65.83
2018-03-17T05:02:16.255Z,65.36
2018-03-17T05:03:16.496Z,65.17
2018-03-17T05:04:16.552Z,65.17
2018-03-17T05:05:16.454Z,64.79
2018-03-17T05:06:16.517Z,64.89
2018-03-17T05:07:16.412Z,64.79
2018-03-17T05:08:16.409Z,65.17
2018-03-17T05:09:16.111Z,64.89
2018-03-17T05:10:16.090Z,65.08
2018-03-17T05:11:16.377Z,65.83
2018-03-17T05:12:16.354Z,67.53
2018-03-17T05:13:16.408Z,68.47
2018-03-17T05:14:16.268Z,68.95
2018-03-17T05:15:16.246Z,69.32
2018-03-17T05:16:15.966Z,69.51
2018-03-17T05:17:16.205Z,69.42
2018-03-17T05:18:16.177Z,70.26
2018-03-17T05:19:16.161Z,70.64
2018-03-17T05:20:16.139Z,71.4
2018-03-17T05:21:16.118Z,71.21
2018-03-17T05:22:15.846Z,71.58
2018-03-17T05:23:16.079Z,71.77
2018-03-17T05:24:16.056Z,72.44
2018-03-17T05:25:16.067Z,72.53
2018-03-17T05:26:16.018Z,72.15
2018-03-17T05:27:15.737Z,73.28
2018-03-17T05:28:15.987Z,74.22
2018-03-17T05:29:15.956Z,73.85
2018-03-17T05:30:15.677Z,73.66
2018-03-17T05:31:15.916Z,74.04
2018-03-17T05:32:15.889Z,74.13
2018-03-17T05:33:15.872Z,75.36
2018-03-17T05:34:15.857Z,76.4
2018-03-17T05:35:15.828Z,76.96
2018-03-17T05:36:15.810Z,76.77
2018-03-17T05:37:15.532Z,76.96
2018-03-17T05:38:15.762Z,76.96
2018-03-17T05:39:15.748Z,77.06
2018-03-17T05:40:15.722Z,76.77
2018-03-17T05:41:15.714Z,77.81
2018-03-17T05:42:15.681Z,76.49
2018-03-17T05:43:15.438Z,77.06
2018-03-17T05:44:15.640Z,77.25
2018-03-17T05:45:15.624Z,77.25
2018-03-17T05:46:15.600Z,76.87
2018-03-17T05:47:15.577Z,76.77
2018-03-17T05:48:15.299Z,76.3
2018-03-17T05:49:15.539Z,76.49
2018-03-17T05:50:15.258Z,76.11
2018-03-17T05:51:15.497Z,76.58
2018-03-17T05:52:15.580Z,76.3
2018-03-17T05:53:15.471Z,75.54
2018-03-17T05:54:15.175Z,75.36
2018-03-17T05:55:15.155Z,75.17
2018-03-17T05:56:15.398Z,76.3
2018-03-17T05:57:15.373Z,76.4
2018-03-17T05:58:15.351Z,76.49
2018-03-17T05:59:15.071Z,76.58
2018-03-17T06:00:15.307Z,76.77
2018-03-17T06:01:15.290Z,77.34
2018-03-17T06:02:15.265Z,77.53
2018-03-17T06:03:14.988Z,77.44
2018-03-17T06:04:15.223Z,77.62
2018-03-17T06:05:15.204Z,77.91
2018-03-17T06:06:15.191Z,77.91
2018-03-17T06:07:15.160Z,78.09
2018-03-17T06:08:15.142Z,78.09
2018-03-17T06:09:14.860Z,78.56
2018-03-17T06:10:14.842Z,78.09
2018-03-17T06:11:15.081Z,77.91
2018-03-17T06:12:15.058Z,78.66
2018-03-17T06:13:15.040Z,79.6
2018-03-17T06:14:15.017Z,79.22
2018-03-17T06:15:14.996Z,79.22
2018-03-17T06:16:14.976Z,80.54
2018-03-17T06:17:14.696Z,81.87
2018-03-17T06:18:14.936Z,82.43
2018-03-17T06:19:14.920Z,82.34
2018-03-17T06:20:14.895Z,82.06
2018-03-17T06:21:14.872Z,81.4
2018-03-17T06:22:14.591Z,80.83
2018-03-17T06:23:14.573Z,79.5
2018-03-17T06:24:14.805Z,79.6
2018-03-17T06:25:14.796Z,79.22
2018-03-17T06:26:14.773Z,78.94
2018-03-17T06:27:14.747Z,78.38
2018-03-17T06:28:14.728Z,78.94
2018-03-17T06:29:14.707Z,79.03
2018-03-17T06:30:14.684Z,79.6
2018-03-17T06:31:14.407Z,80.54
2018-03-17T06:32:14.639Z,80.45
2018-03-17T06:33:14.626Z,81.02
2018-03-17T06:34:14.602Z,81.4
2018-03-17T06:35:14.580Z,82.15
2018-03-17T06:36:14.301Z,81.96
2018-03-17T06:37:14.279Z,81.96
2018-03-17T06:38:14.260Z,81.87
2018-03-17T06:39:14.493Z,81.49
2018-03-17T06:40:14.217Z,81.49
2018-03-17T06:41:14.195Z,81.49
2018-03-17T06:42:14.434Z,80.83
2018-03-17T06:43:14.411Z,81.68
2018-03-17T06:44:14.386Z,81.02
2018-03-17T06:45:14.392Z,80.45
2018-03-17T06:46:14.350Z,79.69
2018-03-17T06:47:14.324Z,79.79
2018-03-17T06:48:14.311Z,80.54
2018-03-17T06:49:14.287Z,80.45
2018-03-17T06:50:14.259Z,81.49
2018-03-17T06:51:13.984Z,82.62
2018-03-17T06:52:14.222Z,82.53
2018-03-17T06:53:14.203Z,81.87
2018-03-17T06:54:14.180Z,81.21
2018-03-17T06:55:13.953Z,80.73
2018-03-17T06:56:14.135Z,80.54
2018-03-17T06:57:13.858Z,81.11
2018-03-17T06:58:14.094Z,81.49
2018-03-17T06:59:14.075Z,81.96
2018-03-17T07:00:14.050Z,81.96
2018-03-17T07:01:14.031Z,82.24
2018-03-17T07:02:14.011Z,81.58
2018-03-17T07:03:13.990Z,81.21
2018-03-17T07:04:13.967Z,80.64
2018-03-17T07:05:13.950Z,81.3
2018-03-17T07:06:13.925Z,82.53
2018-03-17T07:07:13.903Z,82.62
2018-03-17T07:08:13.626Z,82.9
2018-03-17T07:09:13.601Z,83.56
2018-03-17T07:10:13.580Z,84.6
2018-03-17T07:11:13.823Z,84.69
2018-03-17T07:12:13.543Z,85.07
2018-03-17T07:13:13.518Z,84.51
2018-03-17T07:14:13.499Z,83.56
2018-03-17T07:15:13.734Z,83.09
2018-03-17T07:16:13.712Z,82.06
2018-03-17T07:17:13.697Z,82.9
2018-03-17T07:18:13.675Z,83
2018-03-17T07:19:13.711Z,82.71
2018-03-17T07:20:13.632Z,83.28
2018-03-17T07:21:13.609Z,84.69
2018-03-17T07:22:13.591Z,85.17
2018-03-17T07:23:13.576Z,85.45
2018-03-17T07:24:13.545Z,86.77
2018-03-17T07:25:13.612Z,87.52
2018-03-17T07:26:13.502Z,87.71
2018-03-17T07:27:13.481Z,87.81
2018-03-17T07:28:13.209Z,87.52
2018-03-17T07:29:13.440Z,89.13
2018-03-17T07:30:13.424Z,89.51
2018-03-17T07:31:13.402Z,89.51
2018-03-17T07:32:13.378Z,89.79
2018-03-17T07:33:13.362Z,89.03
2018-03-17T07:34:13.336Z,88.18
2018-03-17T07:35:13.317Z,87.52
2018-03-17T07:36:13.296Z,87.05
2018-03-17T07:37:13.275Z,87.52
2018-03-17T07:38:12.997Z,87.99
2018-03-17T07:39:13.233Z,90.55
2018-03-17T07:40:12.954Z,91.49
2018-03-17T07:41:12.933Z,90.73
2018-03-17T07:42:13.170Z,90.36
2018-03-17T07:43:13.153Z,90.17
2018-03-17T07:44:12.867Z,90.36
2018-03-17T07:45:12.848Z,89.98
2018-03-17T07:46:12.826Z,89.6
2018-03-17T07:47:13.067Z,89.6
2018-03-17T07:48:12.788Z,89.79
2018-03-17T07:49:13.021Z,88.75
2018-03-17T07:50:13.006Z,88.75
2018-03-17T07:51:12.735Z,89.51
2018-03-17T07:52:12.963Z,90.36
2018-03-17T07:53:12.938Z,90.26
2018-03-17T07:54:12.921Z,90.55
2018-03-17T07:55:12.900Z,90.73
2018-03-17T07:56:12.880Z,90.83
2018-03-17T07:57:12.860Z,91.49
2018-03-17T07:58:12.576Z,92.24
2018-03-17T07:59:12.820Z,92.9
2018-03-17T08:00:12.795Z,92.99
2018-03-17T08:01:12.533Z,93.47
2018-03-17T08:02:12.754Z,94.41
2018-03-17T08:03:12.731Z,93.94
2018-03-17T08:04:12.452Z,94.13
2018-03-17T08:05:12.433Z,93.56
2018-03-17T08:06:12.675Z,92.8
2018-03-17T08:07:12.394Z,92.24
2018-03-17T08:08:12.373Z,94.79
2018-03-17T08:09:12.608Z,94.6
2018-03-17T08:10:12.332Z,93.94
2018-03-17T08:11:12.564Z,93.56
2018-03-17T08:12:12.289Z,93.84
2018-03-17T08:13:12.269Z,94.69
2018-03-17T08:14:12.507Z,94.13
2018-03-17T08:15:12.225Z,95.92
2018-03-17T08:16:12.469Z,96.95
2018-03-17T08:17:12.445Z,96.67
2018-03-17T08:18:12.420Z,95.92
2018-03-17T08:19:12.398Z,95.92
2018-03-17T08:20:12.380Z,96.01
2018-03-17T08:21:12.099Z,95.73
2018-03-17T08:22:12.093Z,95.17
2018-03-17T08:23:12.315Z,95.17
2018-03-17T08:24:12.297Z,94.51
2018-03-17T08:25:12.279Z,93.56
2018-03-17T08:26:12.254Z,92.05
2018-03-17T08:27:12.233Z,91.58
2018-03-17T08:28:11.957Z,91.3
2018-03-17T08:29:12.192Z,91.77
2018-03-17T08:30:12.175Z,92.05
2018-03-17T08:31:12.151Z,94.69
2018-03-17T08:32:12.133Z,94.51
2018-03-17T08:33:11.848Z,94.22
2018-03-17T08:34:12.172Z,95.64
2018-03-17T08:35:11.806Z,96.01
2018-03-17T08:36:12.051Z,95.45
2018-03-17T08:37:11.768Z,95.26
2018-03-17T08:38:12.003Z,95.07
2018-03-17T08:39:11.993Z,94.6
2018-03-17T08:40:11.960Z,94.6
2018-03-17T08:41:11.941Z,95.07
2018-03-17T08:42:11.922Z,95.07
2018-03-17T08:43:11.643Z,95.17
2018-03-17T08:44:11.880Z,94.98
2018-03-17T08:45:11.862Z,95.07
2018-03-17T08:46:11.577Z,95.45
2018-03-17T08:47:11.557Z,96.67
2018-03-17T08:48:11.537Z,97.43
2018-03-17T08:49:11.519Z,97.52
2018-03-17T08:50:11.496Z,97.14
2018-03-17T08:51:11.735Z,96.67
2018-03-17T08:52:11.715Z,98.56
2018-03-17T08:53:11.756Z,99.22
2018-03-17T08:54:11.419Z,98.47
2018-03-17T08:55:11.652Z,97.95
2018-03-17T08:56:11.633Z,98.99
2018-03-17T08:57:11.353Z,99.46
2018-03-17T08:58:11.592Z,99.99
2018-03-17T08:59:11.571Z,99.99
2018-03-17T09:00:11.548Z,99.99
2018-03-17T09:01:11.533Z,99.99
2018-03-17T09:02:11.509Z,99.99
2018-03-17T09:03:11.484Z,99.99
2018-03-17T09:04:11.209Z,99.99
2018-03-17T09:05:11.447Z,99.99
2018-03-17T09:06:11.427Z,99.99
2018-03-17T09:07:11.411Z,99.99
2018-03-17T09:08:11.125Z,99.99
2018-03-17T09:09:11.366Z,99.98
2018-03-17T09:10:11.348Z,99.99
2018-03-17T09:11:11.329Z,99.6
2018-03-17T09:12:11.420Z,99.99
2018-03-17T09:13:11.287Z,99.99
2018-03-17T09:14:11.003Z,99.99
2018-03-17T09:15:11.237Z,99.84
2018-03-17T09:16:11.230Z,99.99
2018-03-17T09:17:11.197Z,99.99
2018-03-17T09:18:10.924Z,99.99
2018-03-17T09:19:11.161Z,99.99
2018-03-17T09:20:11.141Z,99.99
2018-03-17T09:21:10.860Z,99.99
2018-03-17T09:22:11.097Z,99.99
2018-03-17T09:23:11.075Z,99.99
2018-03-17T09:24:11.056Z,99.99
2018-03-17T09:25:11.042Z,99.99
2018-03-17T09:26:10.758Z,99.99
2018-03-17T09:27:10.739Z,99.99
2018-03-17T09:28:10.713Z,99.99
2018-03-17T09:29:10.954Z,99.99
2018-03-17T09:30:10.935Z,99.99
2018-03-17T09:31:10.911Z,99.99
2018-03-17T09:32:10.893Z,99.99
2018-03-17T09:33:10.876Z,99.99
2018-03-17T09:34:10.851Z,99.99
2018-03-17T09:35:10.831Z,99.99
2018-03-17T09:36:10.815Z,99.99
2018-03-17T09:37:10.790Z,99.99
2018-03-17T09:38:10.767Z,99.99
2018-03-17T09:39:10.747Z,99.99
2018-03-17T09:40:10.733Z,99.99
2018-03-17T09:41:10.709Z,99.99
2018-03-17T09:42:10.734Z,99.99
2018-03-17T09:43:10.668Z,99.99
2018-03-17T09:44:10.649Z,99.99
2018-03-17T09:45:10.627Z,99.99
2018-03-17T09:46:10.612Z,99.99
2018-03-17T09:47:10.586Z,99.99
2018-03-17T09:48:10.622Z,99.99
2018-03-17T09:49:10.547Z,99.99
2018-03-17T09:50:10.527Z,99.99
2018-03-17T09:51:10.504Z,99.99
2018-03-17T09:52:10.544Z,99.99
2018-03-17T09:53:10.460Z,99.99
2018-03-17T09:54:10.447Z,99.99
2018-03-17T09:55:10.420Z,99.99
2018-03-17T09:56:10.143Z,99.99
2018-03-17T09:57:10.383Z,99.99
2018-03-17T09:58:10.361Z,99.99
2018-03-17T09:59:10.091Z,99.99
2018-03-17T10:00:10.065Z,99.99
2018-03-17T10:01:10.299Z,99.99
2018-03-17T10:02:10.023Z,99.99
2018-03-17T10:03:10.258Z,99.99
2018-03-17T10:04:09.981Z,99.99
2018-03-17T10:05:10.222Z,99.99
2018-03-17T10:06:10.203Z,99.99
2018-03-17T10:07:10.179Z,99.99
2018-03-17T10:08:10.156Z,99.99
2018-03-17T10:09:10.140Z,99.99
2018-03-17T10:10:10.118Z,99.99
2018-03-17T10:11:10.097Z,99.99
2018-03-17T10:12:10.076Z,99.99
2018-03-17T10:13:10.060Z,99.99
2018-03-17T10:14:09.782Z,99.99
2018-03-17T10:15:10.018Z,99.99
2018-03-17T10:16:10.008Z,99.99
2018-03-17T10:17:09.982Z,99.99
2018-03-17T10:18:09.962Z,99.99
2018-03-17T10:19:09.942Z,99.99
2018-03-17T10:20:09.920Z,99.99
2018-03-17T10:21:09.900Z,99.99
2018-03-17T10:22:09.884Z,99.99
2018-03-17T10:23:09.859Z,99.99
2018-03-17T10:24:09.837Z,99.99
2018-03-17T10:25:09.559Z,99.99
2018-03-17T10:26:09.846Z,99.99
2018-03-17T10:27:09.777Z,99.99
2018-03-17T10:28:09.759Z,99.99
2018-03-17T10:29:09.747Z,99.99
2018-03-17T10:30:09.459Z,99.99
2018-03-17T10:31:09.482Z,99.99
2018-03-17T10:32:09.677Z,99.99
2018-03-17T10:33:09.671Z,99.99
2018-03-17T10:34:09.436Z,99.99
2018-03-17T10:35:09.359Z,99.99
2018-03-17T10:36:09.343Z,99.99
2018-03-17T10:37:09.592Z,99.99
2018-03-17T10:38:09.557Z,99.99
2018-03-17T10:39:09.539Z,99.99
2018-03-17T10:40:09.526Z,99.99
2018-03-17T10:41:09.496Z,99.99
2018-03-17T10:42:09.481Z,99.99
2018-03-17T10:43:09.458Z,99.99
2018-03-17T10:44:09.439Z,99.99
2018-03-17T10:45:09.160Z,99.99
2018-03-17T10:46:09.142Z,99.99
2018-03-17T10:47:09.383Z,99.99
2018-03-17T10:48:09.105Z,99.99
2018-03-17T10:49:09.081Z,99.99
2018-03-17T10:50:09.323Z,99.99
2018-03-17T10:51:09.310Z,99.99
2018-03-17T10:52:09.022Z,99.99
2018-03-17T10:53:09.272Z,99.99
2018-03-17T10:54:09.241Z,99.99
2018-03-17T10:55:09.228Z,99.99
2018-03-17T10:56:09.201Z,99.99
2018-03-17T10:57:09.181Z,99.99
2018-03-17T10:58:09.167Z,99.99
2018-03-17T10:59:09.146Z,99.99
2018-03-17T11:00:09.170Z,99.99
2018-03-17T11:01:09.108Z,99.99
2018-03-17T11:02:09.093Z,99.99
2018-03-17T11:03:09.068Z,99.99
2018-03-17T11:04:09.059Z,99.99
2018-03-17T11:05:09.038Z,99.99
2018-03-17T11:06:08.824Z,99.99
2018-03-17T11:07:08.987Z,99.99
2018-03-17T11:08:08.966Z,99.99
2018-03-17T11:09:08.950Z,99.99
2018-03-17T11:10:08.672Z,99.99
2018-03-17T11:11:08.917Z,99.99
2018-03-17T11:12:08.891Z,99.99
2018-03-17T11:13:08.873Z,99.99
2018-03-17T11:14:08.850Z,99.99
2018-03-17T11:15:08.831Z,99.99
2018-03-17T11:16:08.816Z,99.99
2018-03-17T11:17:08.799Z,99.99
2018-03-17T11:18:08.779Z,99.99
2018-03-17T11:19:08.765Z,99.99
2018-03-17T11:20:08.738Z,99.99
2018-03-17T11:21:08.720Z,99.99
2018-03-17T11:22:08.701Z,99.99
2018-03-17T11:23:08.738Z,99.99
2018-03-17T11:24:08.662Z,99.99
2018-03-17T11:25:08.377Z,99.99
2018-03-17T11:26:08.624Z,99.99
2018-03-17T11:27:08.342Z,99.99
2018-03-17T11:28:08.322Z,99.99
2018-03-17T11:29:08.562Z,99.99
2018-03-17T11:30:08.543Z,99.99
2018-03-17T11:31:08.531Z,99.99
2018-03-17T11:32:08.501Z,99.99
2018-03-17T11:33:08.224Z,99.99
2018-03-17T11:34:08.465Z,99.99
2018-03-17T11:35:08.446Z,99.99
2018-03-17T11:36:08.167Z,99.99
2018-03-17T11:37:08.180Z,99.99
2018-03-17T11:38:08.127Z,99.99
2018-03-17T11:39:08.368Z,99.99
2018-03-17T11:40:08.356Z,99.99
2018-03-17T11:41:08.068Z,99.99
2018-03-17T11:42:08.049Z,99.99
2018-03-17T11:43:08.292Z,99.99
2018-03-17T11:44:08.011Z,99.99
2018-03-17T11:45:08.293Z,99.99
2018-03-17T11:46:08.249Z,99.99
2018-03-17T11:47:08.212Z,99.99
2018-03-17T11:48:07.934Z,99.99
2018-03-17T11:49:07.914Z,99.99
2018-03-17T11:50:08.151Z,99.99
2018-03-17T11:51:08.135Z,99.99
2018-03-17T11:52:08.123Z,99.99
2018-03-17T11:53:07.838Z,99.99
2018-03-17T11:54:08.077Z,99.99
2018-03-17T11:55:07.795Z,99.99
2018-03-17T11:56:07.779Z,99.99
2018-03-17T11:57:08.032Z,99.99
2018-03-17T11:58:08.001Z,99.99
2018-03-17T11:59:07.983Z,99.99
2018-03-17T12:00:07.959Z,99.99
2018-03-17T12:01:07.681Z,99.99
2018-03-17T12:02:07.923Z,99.99
2018-03-17T12:03:07.903Z,99.99
2018-03-17T12:04:07.884Z,99.99
2018-03-17T12:05:07.861Z,99.99
2018-03-17T12:06:07.864Z,99.99
2018-03-17T12:07:07.564Z,99.99
2018-03-17T12:08:07.807Z,99.99
2018-03-17T12:09:07.788Z,99.99
2018-03-17T12:10:07.857Z,99.99
2018-03-17T12:11:07.746Z,99.99
2018-03-17T12:12:07.467Z,99.99
2018-03-17T12:13:07.705Z,99.99
2018-03-17T12:14:07.427Z,99.99
2018-03-17T12:15:07.674Z,99.99
2018-03-17T12:16:07.649Z,99.99
2018-03-17T12:17:07.634Z,99.99
2018-03-17T12:18:07.613Z,99.99
2018-03-17T12:19:07.333Z,99.99
2018-03-17T12:20:07.573Z,99.99
2018-03-17T12:21:07.556Z,99.99
2018-03-17T12:22:07.535Z,99.99
2018-03-17T12:23:07.508Z,99.99
2018-03-17T12:24:07.496Z,99.99
2018-03-17T12:25:07.217Z,99.99
2018-03-17T12:26:07.455Z,99.99
2018-03-17T12:27:07.434Z,99.99
2018-03-17T12:28:07.413Z,99.99
2018-03-17T12:29:07.393Z,99.99
2018-03-17T12:30:07.114Z,99.99
2018-03-17T12:31:07.356Z,99.99
2018-03-17T12:32:07.333Z,99.99
2018-03-17T12:33:07.336Z,99.99
2018-03-17T12:34:07.292Z,99.99
2018-03-17T12:35:07.274Z,99.99
2018-03-17T12:36:06.999Z,99.99
2018-03-17T12:37:07.237Z,99.99
2018-03-17T12:38:07.215Z,99.99
2018-03-17T12:39:07.198Z,99.99
2018-03-17T12:40:06.924Z,99.99
2018-03-17T12:41:07.223Z,99.99
2018-03-17T12:42:06.879Z,99.99
2018-03-17T12:43:07.120Z,99.99
2018-03-17T12:44:07.097Z,99.99
2018-03-17T12:45:07.077Z,99.99
2018-03-17T12:46:07.055Z,99.99
2018-03-17T12:47:07.033Z,99.99
2018-03-17T12:48:07.015Z,99.99
2018-03-17T12:49:06.744Z,99.99
2018-03-17T12:50:06.978Z,99.99
2018-03-17T12:51:06.953Z,99.99
2018-03-17T12:52:06.954Z,99.99
2018-03-17T12:53:06.915Z,99.99
2018-03-17T12:54:06.640Z,99.99